BENGL51 KNIP-KLAL
Flight info
| Callsign | BENGL51 |
|---|---|
| Flight time | 0h 31m |
| Altitude | 12500 |
| Route | BASSS JENSN |
| Aircraft | VF35/M-SDFIRY/LB1 |
Departure
| Time | 2026-04-26 21:36 |
|---|---|
| Airport | Jacksonville Naval Air Station (Towers Field) (KNIP) |
Arrival
| Time | 2026-04-26 22:08 |
|---|---|
| Airport | Lakeland Linder International Airport (KLAL) |
| Time | Latitude | Longitude | Altitude | Speed | Heading |
|---|---|---|---|---|---|
| 2026-04-26 21:33 | 30.22988 | -81.67595 | 28 ft | 0 kts | 180° |
| 2026-04-26 21:33 | 30.22973 | -81.67595 | 28 ft | 6 kts | 182° |
| 2026-04-26 21:34 | 30.22953 | -81.67623 | 28 ft | 5 kts | 270° |
| 2026-04-26 21:34 | 30.22952 | -81.67712 | 28 ft | 17 kts | 270° |
| 2026-04-26 21:34 | 30.22964 | -81.67861 | 27 ft | 15 kts | 272° |
| 2026-04-26 21:34 | 30.22966 | -81.67977 | 27 ft | 14 kts | 279° |
| 2026-04-26 21:35 | 30.23038 | -81.68017 | 27 ft | 12 kts | 359° |
| 2026-04-26 21:35 | 30.23147 | -81.68005 | 24 ft | 17 kts | 38° |
| 2026-04-26 21:35 | 30.23165 | -81.67788 | 27 ft | 66 kts | 89° |
| 2026-04-26 21:35 | 30.23169 | -81.66873 | 29 ft | 154 kts | 90° |
| 2026-04-26 21:36 | 30.23162 | -81.65238 | 497 ft | 248 kts | 90° |
| 2026-04-26 21:36 | 30.22422 | -81.63598 | 1217 ft | 260 kts | 165° |
| 2026-04-26 21:36 | 30.20616 | -81.63448 | 2123 ft | 268 kts | 179° |
| 2026-04-26 21:36 | 30.18743 | -81.63298 | 2823 ft | 270 kts | 172° |
| 2026-04-26 21:37 | 30.16894 | -81.62906 | 3486 ft | 273 kts | 169° |
| 2026-04-26 21:37 | 30.15020 | -81.62477 | 4182 ft | 276 kts | 172° |
| 2026-04-26 21:37 | 30.13106 | -81.62183 | 4870 ft | 278 kts | 175° |
| 2026-04-26 21:37 | 30.11180 | -81.61891 | 5617 ft | 283 kts | 173° |
| 2026-04-26 21:38 | 30.09244 | -81.61538 | 6462 ft | 287 kts | 173° |
| 2026-04-26 21:38 | 30.07270 | -81.61192 | 7245 ft | 289 kts | 174° |
| 2026-04-26 21:38 | 30.05266 | -81.60864 | 8033 ft | 291 kts | 174° |
| 2026-04-26 21:38 | 30.03270 | -81.60529 | 8772 ft | 298 kts | 174° |
| 2026-04-26 21:39 | 30.01226 | -81.60173 | 9545 ft | 300 kts | 174° |
| 2026-04-26 21:39 | 29.98827 | -81.59776 | 10307 ft | 405 kts | 174° |
| 2026-04-26 21:39 | 29.95622 | -81.59235 | 11153 ft | 525 kts | 172° |
| 2026-04-26 21:39 | 29.91645 | -81.58545 | 11895 ft | 617 kts | 173° |
| 2026-04-26 21:40 | 29.87348 | -81.57825 | 12254 ft | 629 kts | 173° |
| 2026-04-26 21:40 | 29.83004 | -81.57087 | 12381 ft | 632 kts | 172° |
| 2026-04-26 21:40 | 29.78642 | -81.56349 | 12430 ft | 633 kts | 172° |
| 2026-04-26 21:40 | 29.74275 | -81.55613 | 12445 ft | 633 kts | 172° |
| 2026-04-26 21:41 | 29.69988 | -81.54894 | 12441 ft | 633 kts | 174° |
| 2026-04-26 21:41 | 29.65599 | -81.54689 | 12440 ft | 630 kts | 185° |
| 2026-04-26 21:41 | 29.61270 | -81.55374 | 12440 ft | 629 kts | 192° |
| 2026-04-26 21:41 | 29.56963 | -81.56361 | 11813 ft | 628 kts | 193° |
| 2026-04-26 21:42 | 29.53007 | -81.57105 | 11097 ft | 533 kts | 187° |
| 2026-04-26 21:42 | 29.49534 | -81.57573 | 10377 ft | 475 kts | 190° |
| 2026-04-26 21:42 | 29.46416 | -81.58147 | 9646 ft | 437 kts | 190° |
| 2026-04-26 21:42 | 29.43504 | -81.58616 | 8861 ft | 410 kts | 189° |
| 2026-04-26 21:43 | 29.40752 | -81.59049 | 8086 ft | 388 kts | 190° |
| 2026-04-26 21:43 | 29.38139 | -81.59495 | 7322 ft | 371 kts | 190° |
| 2026-04-26 21:43 | 29.35632 | -81.59907 | 6606 ft | 357 kts | 189° |
| 2026-04-26 21:43 | 29.33243 | -81.60291 | 5873 ft | 346 kts | 189° |
| 2026-04-26 21:44 | 29.30898 | -81.60680 | 5151 ft | 335 kts | 189° |
| 2026-04-26 21:44 | 29.28647 | -81.61050 | 4737 ft | 315 kts | 189° |
| 2026-04-26 21:44 | 29.26565 | -81.61385 | 4537 ft | 288 kts | 189° |
| 2026-04-26 21:44 | 29.24691 | -81.61693 | 4447 ft | 256 kts | 189° |
| 2026-04-26 21:45 | 29.23033 | -81.61963 | 4396 ft | 231 kts | 190° |
| 2026-04-26 21:45 | 29.21439 | -81.62226 | 4384 ft | 230 kts | 190° |
| 2026-04-26 21:45 | 29.19858 | -81.62487 | 4391 ft | 229 kts | 190° |
| 2026-04-26 21:45 | 29.18294 | -81.62742 | 4390 ft | 230 kts | 191° |
| 2026-04-26 21:46 | 29.16714 | -81.63003 | 4387 ft | 231 kts | 190° |
| 2026-04-26 21:46 | 29.15132 | -81.63258 | 4387 ft | 229 kts | 190° |
| 2026-04-26 21:46 | 29.13550 | -81.63516 | 4397 ft | 231 kts | 191° |
| 2026-04-26 21:46 | 29.11973 | -81.63778 | 4410 ft | 229 kts | 189° |
| 2026-04-26 21:47 | 29.10393 | -81.64036 | 4415 ft | 230 kts | 190° |
| 2026-04-26 21:47 | 29.08813 | -81.64291 | 4421 ft | 229 kts | 191° |
| 2026-04-26 21:47 | 29.07232 | -81.64548 | 4424 ft | 229 kts | 190° |
| 2026-04-26 21:47 | 29.05649 | -81.64804 | 4409 ft | 230 kts | 191° |
| 2026-04-26 21:48 | 29.04066 | -81.65067 | 4408 ft | 229 kts | 191° |
| 2026-04-26 21:48 | 29.02505 | -81.65325 | 4413 ft | 229 kts | 190° |
| 2026-04-26 21:48 | 29.00923 | -81.65579 | 4413 ft | 229 kts | 190° |
| 2026-04-26 21:48 | 28.99328 | -81.65834 | 4424 ft | 231 kts | 190° |
| 2026-04-26 21:49 | 28.97738 | -81.66090 | 4416 ft | 230 kts | 191° |
| 2026-04-26 21:49 | 28.96151 | -81.66354 | 4407 ft | 232 kts | 190° |
| 2026-04-26 21:49 | 28.94574 | -81.66620 | 4409 ft | 229 kts | 190° |
| 2026-04-26 21:49 | 28.92980 | -81.66871 | 4421 ft | 233 kts | 191° |
| 2026-04-26 21:50 | 28.91392 | -81.67121 | 4428 ft | 231 kts | 191° |
| 2026-04-26 21:50 | 28.89834 | -81.67383 | 4436 ft | 229 kts | 190° |
| 2026-04-26 21:50 | 28.88251 | -81.67648 | 4439 ft | 229 kts | 189° |
| 2026-04-26 21:50 | 28.86665 | -81.67904 | 4491 ft | 231 kts | 189° |
| 2026-04-26 21:51 | 28.85075 | -81.68151 | 4475 ft | 232 kts | 190° |
| 2026-04-26 21:51 | 28.83481 | -81.68410 | 4455 ft | 232 kts | 191° |
| 2026-04-26 21:51 | 28.81891 | -81.68676 | 4448 ft | 229 kts | 191° |
| 2026-04-26 21:51 | 28.80302 | -81.68937 | 4417 ft | 229 kts | 190° |
| 2026-04-26 21:52 | 28.78714 | -81.69190 | 4421 ft | 228 kts | 190° |
| 2026-04-26 21:52 | 28.77132 | -81.69442 | 4420 ft | 229 kts | 191° |
| 2026-04-26 21:52 | 28.75543 | -81.69704 | 4447 ft | 230 kts | 191° |
| 2026-04-26 21:52 | 28.73960 | -81.69964 | 4433 ft | 231 kts | 190° |
| 2026-04-26 21:53 | 28.72397 | -81.70221 | 4418 ft | 229 kts | 189° |
| 2026-04-26 21:53 | 28.70805 | -81.70471 | 4412 ft | 232 kts | 191° |
| 2026-04-26 21:53 | 28.69229 | -81.70720 | 4407 ft | 226 kts | 192° |
| 2026-04-26 21:53 | 28.67654 | -81.70978 | 4422 ft | 227 kts | 192° |
| 2026-04-26 21:54 | 28.66078 | -81.71246 | 4421 ft | 229 kts | 192° |
| 2026-04-26 21:54 | 28.64501 | -81.71500 | 4432 ft | 227 kts | 190° |
| 2026-04-26 21:54 | 28.62920 | -81.71746 | 4410 ft | 228 kts | 189° |
| 2026-04-26 21:54 | 28.61336 | -81.71998 | 4344 ft | 233 kts | 191° |
| 2026-04-26 21:55 | 28.59718 | -81.72263 | 3582 ft | 235 kts | 192° |
| 2026-04-26 21:55 | 28.58135 | -81.72524 | 3022 ft | 229 kts | 192° |
| 2026-04-26 21:55 | 28.56589 | -81.72778 | 2735 ft | 222 kts | 190° |
| 2026-04-26 21:55 | 28.55036 | -81.73021 | 2596 ft | 221 kts | 191° |
| 2026-04-26 21:56 | 28.53490 | -81.73263 | 2550 ft | 219 kts | 192° |
| 2026-04-26 21:56 | 28.51958 | -81.73517 | 2535 ft | 220 kts | 193° |
| 2026-04-26 21:56 | 28.50423 | -81.73769 | 2529 ft | 219 kts | 191° |
| 2026-04-26 21:56 | 28.48897 | -81.74021 | 2515 ft | 219 kts | 191° |
| 2026-04-26 21:57 | 28.47359 | -81.74259 | 2519 ft | 224 kts | 191° |
| 2026-04-26 21:57 | 28.45818 | -81.74503 | 2519 ft | 223 kts | 191° |
| 2026-04-26 21:57 | 28.44298 | -81.74756 | 2529 ft | 222 kts | 191° |
| 2026-04-26 21:57 | 28.42761 | -81.75007 | 2496 ft | 222 kts | 190° |
| 2026-04-26 21:58 | 28.41225 | -81.75250 | 2495 ft | 223 kts | 191° |
| 2026-04-26 21:58 | 28.39660 | -81.75495 | 2388 ft | 226 kts | 191° |
| 2026-04-26 21:58 | 28.38121 | -81.75744 | 2260 ft | 221 kts | 192° |
| 2026-04-26 21:58 | 28.36601 | -81.75999 | 2215 ft | 226 kts | 192° |
| 2026-04-26 21:59 | 28.35067 | -81.76244 | 2191 ft | 223 kts | 191° |
| 2026-04-26 21:59 | 28.33518 | -81.76282 | 2222 ft | 228 kts | 165° |
| 2026-04-26 21:59 | 28.32078 | -81.75484 | 2221 ft | 231 kts | 161° |
| 2026-04-26 21:59 | 28.30544 | -81.75320 | 2249 ft | 222 kts | 193° |
| 2026-04-26 22:00 | 28.29027 | -81.75658 | 2249 ft | 224 kts | 194° |
| 2026-04-26 22:00 | 28.27491 | -81.75983 | 2242 ft | 223 kts | 194° |
| 2026-04-26 22:00 | 28.25945 | -81.76302 | 2243 ft | 224 kts | 193° |
| 2026-04-26 22:00 | 28.24418 | -81.76620 | 2214 ft | 223 kts | 193° |
| 2026-04-26 22:01 | 28.22875 | -81.76943 | 2195 ft | 223 kts | 192° |
| 2026-04-26 22:01 | 28.21335 | -81.77261 | 2195 ft | 225 kts | 194° |
| 2026-04-26 22:01 | 28.19822 | -81.77663 | 2221 ft | 222 kts | 201° |
| 2026-04-26 22:01 | 28.18420 | -81.78354 | 2177 ft | 218 kts | 212° |
| 2026-04-26 22:02 | 28.17156 | -81.79236 | 2153 ft | 214 kts | 216° |
| 2026-04-26 22:02 | 28.15887 | -81.80164 | 2166 ft | 214 kts | 216° |
| 2026-04-26 22:02 | 28.14623 | -81.81080 | 2196 ft | 213 kts | 216° |
| 2026-04-26 22:02 | 28.13347 | -81.82002 | 2227 ft | 214 kts | 216° |
| 2026-04-26 22:03 | 28.12103 | -81.82954 | 2250 ft | 215 kts | 223° |
| 2026-04-26 22:03 | 28.11171 | -81.84239 | 2261 ft | 204 kts | 244° |
| 2026-04-26 22:03 | 28.10547 | -81.85704 | 2220 ft | 209 kts | 250° |
| 2026-04-26 22:03 | 28.10013 | -81.87213 | 2229 ft | 198 kts | 251° |
| 2026-04-26 22:04 | 28.09494 | -81.88730 | 2278 ft | 211 kts | 252° |
| 2026-04-26 22:04 | 28.09107 | -81.90261 | 2235 ft | 203 kts | 259° |
| 2026-04-26 22:04 | 28.08856 | -81.91872 | 2212 ft | 206 kts | 262° |
| 2026-04-26 22:04 | 28.08412 | -81.93417 | 2194 ft | 211 kts | 236° |
| 2026-04-26 22:05 | 28.07209 | -81.94388 | 2069 ft | 218 kts | 209° |
| 2026-04-26 22:05 | 28.05785 | -81.95000 | 2118 ft | 216 kts | 201° |
| 2026-04-26 22:05 | 28.04334 | -81.95465 | 2101 ft | 217 kts | 200° |
| 2026-04-26 22:05 | 28.02998 | -81.95845 | 1999 ft | 180 kts | 195° |
| 2026-04-26 22:06 | 28.01796 | -81.96132 | 1776 ft | 176 kts | 195° |
| 2026-04-26 22:06 | 28.00613 | -81.96460 | 1552 ft | 178 kts | 203° |
| 2026-04-26 22:06 | 27.99588 | -81.97089 | 1187 ft | 157 kts | 224° |
| 2026-04-26 22:06 | 27.98969 | -81.98040 | 814 ft | 160 kts | 259° |
| 2026-04-26 22:07 | 27.98919 | -81.99281 | 526 ft | 156 kts | 273° |
| 2026-04-26 22:07 | 27.98915 | -82.00504 | 233 ft | 149 kts | 272° |
| 2026-04-26 22:07 | 27.98919 | -82.01511 | 144 ft | 98 kts | 270° |
| 2026-04-26 22:07 | 27.98919 | -82.02132 | 140 ft | 67 kts | 270° |
| 2026-04-26 22:08 | 27.98871 | -82.02291 | 140 ft | 14 kts | 179° |
| 2026-04-26 22:08 | 27.98796 | -82.02291 | 138 ft | 7 kts | 180° |
| 2026-04-26 22:08 | 27.98766 | -82.02291 | 138 ft | 0 kts | 180° |
| 2026-04-26 22:08 | 27.98750 | -82.02290 | 138 ft | 6 kts | 173° |